sensor_id;sensor_type;location;lat;lon;timestamp;P1;durP1;ratioP1;P2;durP2;ratioP2
12886;SDS011;6511;49.746;6.094;2022-08-19T00:01:28;15.40;;;14.00;;
12886;SDS011;6511;49.746;6.094;2022-08-19T00:03:59;16.30;;;14.60;;
12886;SDS011;6511;49.746;6.094;2022-08-19T00:06:26;16.57;;;14.90;;
12886;SDS011;6511;49.746;6.094;2022-08-19T00:08:53;16.05;;;14.55;;
12886;SDS011;6511;49.746;6.094;2022-08-19T00:11:20;16.08;;;14.52;;
12886;SDS011;6511;49.746;6.094;2022-08-19T00:13:46;16.50;;;14.90;;
12886;SDS011;6511;49.746;6.094;2022-08-19T00:16:14;15.32;;;13.93;;
12886;SDS011;6511;49.746;6.094;2022-08-19T00:18:40;15.45;;;14.05;;
12886;SDS011;6511;49.746;6.094;2022-08-19T00:21:06;15.47;;;13.93;;
12886;SDS011;6511;49.746;6.094;2022-08-19T00:23:32;15.40;;;13.93;;
12886;SDS011;6511;49.746;6.094;2022-08-19T00:25:59;15.80;;;14.32;;
12886;SDS011;6511;49.746;6.094;2022-08-19T00:28:25;15.80;;;14.30;;
12886;SDS011;6511;49.746;6.094;2022-08-19T00:30:51;18.35;;;16.58;;
12886;SDS011;6511;49.746;6.094;2022-08-19T00:33:18;17.38;;;15.68;;
12886;SDS011;6511;49.746;6.094;2022-08-19T00:35:44;17.05;;;15.40;;
12886;SDS011;6511;49.746;6.094;2022-08-19T00:38:10;16.98;;;15.38;;
12886;SDS011;6511;49.746;6.094;2022-08-19T00:40:35;16.75;;;15.05;;
12886;SDS011;6511;49.746;6.094;2022-08-19T00:43:01;16.33;;;14.73;;
12886;SDS011;6511;49.746;6.094;2022-08-19T00:45:33;16.40;;;14.90;;
12886;SDS011;6511;49.746;6.094;2022-08-19T00:48:00;16.42;;;14.93;;
12886;SDS011;6511;49.746;6.094;2022-08-19T00:50:29;17.25;;;15.27;;
12886;SDS011;6511;49.746;6.094;2022-08-19T00:52:55;16.98;;;15.40;;
12886;SDS011;6511;49.746;6.094;2022-08-19T00:55:24;17.55;;;15.93;;
12886;SDS011;6511;49.746;6.094;2022-08-19T00:57:54;17.90;;;16.05;;
12886;SDS011;6511;49.746;6.094;2022-08-19T01:00:27;17.90;;;16.20;;
12886;SDS011;6511;49.746;6.094;2022-08-19T01:02:54;19.08;;;17.25;;
12886;SDS011;6511;49.746;6.094;2022-08-19T01:05:22;18.70;;;16.90;;
12886;SDS011;6511;49.746;6.094;2022-08-19T01:07:52;18.73;;;16.85;;
12886;SDS011;6511;49.746;6.094;2022-08-19T01:10:20;18.25;;;16.35;;
12886;SDS011;6511;49.746;6.094;2022-08-19T01:12:49;18.38;;;16.63;;
12886;SDS011;6511;49.746;6.094;2022-08-19T01:15:17;18.98;;;17.08;;
12886;SDS011;6511;49.746;6.094;2022-08-19T01:17:46;18.83;;;17.05;;
12886;SDS011;6511;49.746;6.094;2022-08-19T01:20:13;19.55;;;17.65;;
12886;SDS011;6511;49.746;6.094;2022-08-19T01:22:44;18.42;;;16.65;;
12886;SDS011;6511;49.746;6.094;2022-08-19T01:25:15;17.80;;;16.17;;
12886;SDS011;6511;49.746;6.094;2022-08-19T01:27:45;19.75;;;17.80;;
12886;SDS011;6511;49.746;6.094;2022-08-19T01:30:14;19.67;;;17.88;;
12886;SDS011;6511;49.746;6.094;2022-08-19T01:32:45;19.77;;;17.83;;
12886;SDS011;6511;49.746;6.094;2022-08-19T01:35:12;19.67;;;17.75;;
12886;SDS011;6511;49.746;6.094;2022-08-19T01:37:42;20.45;;;18.40;;
12886;SDS011;6511;49.746;6.094;2022-08-19T01:40:12;19.63;;;17.73;;
12886;SDS011;6511;49.746;6.094;2022-08-19T01:42:38;19.98;;;18.08;;
12886;SDS011;6511;49.746;6.094;2022-08-19T01:45:05;19.30;;;17.50;;
12886;SDS011;6511;49.746;6.094;2022-08-19T01:47:33;19.63;;;17.60;;
12886;SDS011;6511;49.746;6.094;2022-08-19T01:50:03;20.98;;;18.63;;
12886;SDS011;6511;49.746;6.094;2022-08-19T01:52:29;19.55;;;17.65;;
12886;SDS011;6511;49.746;6.094;2022-08-19T01:54:55;20.38;;;18.38;;
12886;SDS011;6511;49.746;6.094;2022-08-19T01:57:21;20.70;;;18.70;;
12886;SDS011;6511;49.746;6.094;2022-08-19T01:59:47;19.77;;;17.88;;
12886;SDS011;6511;49.746;6.094;2022-08-19T02:02:12;19.60;;;17.70;;
12886;SDS011;6511;49.746;6.094;2022-08-19T02:04:38;19.02;;;17.23;;
12886;SDS011;6511;49.746;6.094;2022-08-19T02:07:04;18.90;;;17.10;;
12886;SDS011;6511;49.746;6.094;2022-08-19T02:09:33;18.75;;;16.88;;
12886;SDS011;6511;49.746;6.094;2022-08-19T02:11:59;19.25;;;17.35;;
12886;SDS011;6511;49.746;6.094;2022-08-19T02:14:25;18.67;;;16.83;;
12886;SDS011;6511;49.746;6.094;2022-08-19T02:16:51;19.23;;;17.30;;
12886;SDS011;6511;49.746;6.094;2022-08-19T02:19:16;19.00;;;17.15;;
12886;SDS011;6511;49.746;6.094;2022-08-19T02:21:42;19.43;;;17.53;;
12886;SDS011;6511;49.746;6.094;2022-08-19T02:24:08;19.10;;;17.30;;
12886;SDS011;6511;49.746;6.094;2022-08-19T02:26:34;18.92;;;17.13;;
12886;SDS011;6511;49.746;6.094;2022-08-19T02:29:00;19.52;;;17.63;;
12886;SDS011;6511;49.746;6.094;2022-08-19T02:31:26;19.90;;;18.00;;
12886;SDS011;6511;49.746;6.094;2022-08-19T02:33:53;18.60;;;16.85;;
12886;SDS011;6511;49.746;6.094;2022-08-19T02:36:20;18.88;;;17.20;;
12886;SDS011;6511;49.746;6.094;2022-08-19T02:38:47;19.92;;;18.08;;
12886;SDS011;6511;49.746;6.094;2022-08-19T02:41:14;20.05;;;18.17;;
12886;SDS011;6511;49.746;6.094;2022-08-19T02:43:43;20.73;;;18.70;;
12886;SDS011;6511;49.746;6.094;2022-08-19T02:46:16;21.33;;;19.23;;
12886;SDS011;6511;49.746;6.094;2022-08-19T02:48:48;19.13;;;17.33;;
12886;SDS011;6511;49.746;6.094;2022-08-19T02:51:16;19.60;;;17.77;;
12886;SDS011;6511;49.746;6.094;2022-08-19T02:53:46;19.83;;;17.98;;
12886;SDS011;6511;49.746;6.094;2022-08-19T02:56:12;20.00;;;18.00;;
12886;SDS011;6511;49.746;6.094;2022-08-19T02:58:38;21.05;;;19.05;;
12886;SDS011;6511;49.746;6.094;2022-08-19T03:01:04;21.10;;;19.10;;
12886;SDS011;6511;49.746;6.094;2022-08-19T03:03:29;22.83;;;20.42;;
12886;SDS011;6511;49.746;6.094;2022-08-19T03:06:05;23.20;;;20.90;;
12886;SDS011;6511;49.746;6.094;2022-08-19T03:08:33;21.87;;;19.77;;
12886;SDS011;6511;49.746;6.094;2022-08-19T03:10:59;22.30;;;20.15;;
12886;SDS011;6511;49.746;6.094;2022-08-19T03:13:24;21.53;;;19.53;;
12886;SDS011;6511;49.746;6.094;2022-08-19T03:15:50;21.13;;;19.10;;
12886;SDS011;6511;49.746;6.094;2022-08-19T03:18:16;21.00;;;19.00;;
12886;SDS011;6511;49.746;6.094;2022-08-19T03:20:46;21.13;;;19.02;;
12886;SDS011;6511;49.746;6.094;2022-08-19T03:23:14;23.10;;;20.85;;
12886;SDS011;6511;49.746;6.094;2022-08-19T03:25:42;22.35;;;20.02;;
12886;SDS011;6511;49.746;6.094;2022-08-19T03:28:13;21.27;;;19.08;;
12886;SDS011;6511;49.746;6.094;2022-08-19T03:30:40;21.35;;;19.25;;
12886;SDS011;6511;49.746;6.094;2022-08-19T03:33:09;21.02;;;19.02;;
12886;SDS011;6511;49.746;6.094;2022-08-19T03:35:37;21.48;;;19.42;;
12886;SDS011;6511;49.746;6.094;2022-08-19T03:38:03;21.67;;;19.40;;
12886;SDS011;6511;49.746;6.094;2022-08-19T03:40:31;22.35;;;20.25;;
12886;SDS011;6511;49.746;6.094;2022-08-19T03:42:59;22.33;;;20.13;;
12886;SDS011;6511;49.746;6.094;2022-08-19T03:45:28;24.13;;;21.83;;
12886;SDS011;6511;49.746;6.094;2022-08-19T03:47:54;22.85;;;20.65;;
12886;SDS011;6511;49.746;6.094;2022-08-19T03:50:20;21.88;;;19.77;;
12886;SDS011;6511;49.746;6.094;2022-08-19T03:52:49;22.27;;;20.08;;
12886;SDS011;6511;49.746;6.094;2022-08-19T03:55:16;21.05;;;19.02;;
12886;SDS011;6511;49.746;6.094;2022-08-19T03:57:42;21.33;;;19.23;;
12886;SDS011;6511;49.746;6.094;2022-08-19T04:00:10;20.92;;;18.83;;
12886;SDS011;6511;49.746;6.094;2022-08-19T04:02:37;21.77;;;19.58;;
12886;SDS011;6511;49.746;6.094;2022-08-19T04:05:02;21.33;;;19.23;;
12886;SDS011;6511;49.746;6.094;2022-08-19T04:07:28;21.48;;;19.45;;
12886;SDS011;6511;49.746;6.094;2022-08-19T04:09:54;22.67;;;20.47;;
12886;SDS011;6511;49.746;6.094;2022-08-19T04:12:19;23.85;;;21.25;;
12886;SDS011;6511;49.746;6.094;2022-08-19T04:14:45;22.77;;;20.47;;
12886;SDS011;6511;49.746;6.094;2022-08-19T04:17:11;22.27;;;20.08;;
12886;SDS011;6511;49.746;6.094;2022-08-19T04:19:39;21.95;;;19.55;;
12886;SDS011;6511;49.746;6.094;2022-08-19T04:22:05;22.02;;;19.83;;
12886;SDS011;6511;49.746;6.094;2022-08-19T04:24:32;21.15;;;19.05;;
12886;SDS011;6511;49.746;6.094;2022-08-19T04:27:00;21.30;;;19.20;;
12886;SDS011;6511;49.746;6.094;2022-08-19T04:29:27;21.38;;;19.27;;
12886;SDS011;6511;49.746;6.094;2022-08-19T04:31:55;21.30;;;19.10;;
12886;SDS011;6511;49.746;6.094;2022-08-19T04:34:23;22.33;;;20.02;;
12886;SDS011;6511;49.746;6.094;2022-08-19T04:36:51;22.15;;;19.90;;
12886;SDS011;6511;49.746;6.094;2022-08-19T04:39:23;21.60;;;19.60;;
12886;SDS011;6511;49.746;6.094;2022-08-19T04:42:11;23.37;;;20.97;;
12886;SDS011;6511;49.746;6.094;2022-08-19T04:44:56;22.75;;;20.52;;
12886;SDS011;6511;49.746;6.094;2022-08-19T04:47:23;23.67;;;21.30;;
12886;SDS011;6511;49.746;6.094;2022-08-19T04:49:49;24.27;;;21.87;;
12886;SDS011;6511;49.746;6.094;2022-08-19T04:52:18;22.30;;;20.10;;
12886;SDS011;6511;49.746;6.094;2022-08-19T04:54:43;22.80;;;20.50;;
12886;SDS011;6511;49.746;6.094;2022-08-19T04:57:09;22.93;;;20.73;;
12886;SDS011;6511;49.746;6.094;2022-08-19T04:59:35;22.75;;;20.45;;
12886;SDS011;6511;49.746;6.094;2022-08-19T05:02:03;21.55;;;19.45;;
12886;SDS011;6511;49.746;6.094;2022-08-19T05:04:29;20.60;;;18.60;;
12886;SDS011;6511;49.746;6.094;2022-08-19T05:06:56;20.63;;;18.73;;
12886;SDS011;6511;49.746;6.094;2022-08-19T05:09:22;20.55;;;18.63;;
12886;SDS011;6511;49.746;6.094;2022-08-19T05:11:48;22.67;;;20.47;;
12886;SDS011;6511;49.746;6.094;2022-08-19T05:14:18;23.77;;;21.48;;
12886;SDS011;6511;49.746;6.094;2022-08-19T05:16:45;23.98;;;21.38;;
12886;SDS011;6511;49.746;6.094;2022-08-19T05:19:11;22.60;;;20.40;;
12886;SDS011;6511;49.746;6.094;2022-08-19T05:21:55;21.63;;;19.60;;
12886;SDS011;6511;49.746;6.094;2022-08-19T05:24:39;21.73;;;19.52;;
12886;SDS011;6511;49.746;6.094;2022-08-19T05:27:05;22.33;;;20.13;;
12886;SDS011;6511;49.746;6.094;2022-08-19T05:29:32;20.27;;;18.17;;
12886;SDS011;6511;49.746;6.094;2022-08-19T05:31:59;19.80;;;17.83;;
12886;SDS011;6511;49.746;6.094;2022-08-19T05:34:26;18.83;;;16.88;;
12886;SDS011;6511;49.746;6.094;2022-08-19T05:36:56;19.55;;;17.75;;
12886;SDS011;6511;49.746;6.094;2022-08-19T05:39:25;18.43;;;16.70;;
12886;SDS011;6511;49.746;6.094;2022-08-19T05:41:54;19.67;;;17.67;;
12886;SDS011;6511;49.746;6.094;2022-08-19T05:44:23;19.75;;;17.85;;
12886;SDS011;6511;49.746;6.094;2022-08-19T05:46:56;19.42;;;17.58;;
12886;SDS011;6511;49.746;6.094;2022-08-19T05:49:23;20.73;;;18.83;;
12886;SDS011;6511;49.746;6.094;2022-08-19T05:51:50;21.50;;;19.50;;
12886;SDS011;6511;49.746;6.094;2022-08-19T05:54:16;19.88;;;18.08;;
12886;SDS011;6511;49.746;6.094;2022-08-19T05:56:43;20.08;;;18.25;;
12886;SDS011;6511;49.746;6.094;2022-08-19T05:59:09;19.83;;;17.93;;
12886;SDS011;6511;49.746;6.094;2022-08-19T06:01:41;20.00;;;18.10;;
12886;SDS011;6511;49.746;6.094;2022-08-19T06:04:10;19.73;;;17.83;;
12886;SDS011;6511;49.746;6.094;2022-08-19T06:06:36;19.40;;;17.70;;
12886;SDS011;6511;49.746;6.094;2022-08-19T06:09:03;18.60;;;16.90;;
12886;SDS011;6511;49.746;6.094;2022-08-19T06:11:34;17.67;;;16.08;;
12886;SDS011;6511;49.746;6.094;2022-08-19T06:14:07;18.52;;;16.90;;
12886;SDS011;6511;49.746;6.094;2022-08-19T06:16:39;18.48;;;16.55;;
12886;SDS011;6511;49.746;6.094;2022-08-19T06:19:07;19.10;;;17.30;;
12886;SDS011;6511;49.746;6.094;2022-08-19T06:21:37;20.98;;;18.88;;
12886;SDS011;6511;49.746;6.094;2022-08-19T06:24:05;21.33;;;19.30;;
12886;SDS011;6511;49.746;6.094;2022-08-19T06:26:34;21.27;;;19.27;;
12886;SDS011;6511;49.746;6.094;2022-08-19T06:29:02;21.60;;;19.50;;
12886;SDS011;6511;49.746;6.094;2022-08-19T06:31:31;21.70;;;19.70;;
12886;SDS011;6511;49.746;6.094;2022-08-19T06:33:59;21.90;;;19.80;;
12886;SDS011;6511;49.746;6.094;2022-08-19T06:36:30;21.37;;;19.37;;
12886;SDS011;6511;49.746;6.094;2022-08-19T06:39:06;22.08;;;19.98;;
12886;SDS011;6511;49.746;6.094;2022-08-19T06:41:36;21.40;;;19.40;;
12886;SDS011;6511;49.746;6.094;2022-08-19T06:44:04;21.67;;;19.57;;
12886;SDS011;6511;49.746;6.094;2022-08-19T06:46:30;22.42;;;20.23;;
12886;SDS011;6511;49.746;6.094;2022-08-19T06:48:55;23.53;;;21.27;;
12886;SDS011;6511;49.746;6.094;2022-08-19T06:51:22;23.38;;;21.08;;
12886;SDS011;6511;49.746;6.094;2022-08-19T06:53:49;22.97;;;20.77;;
12886;SDS011;6511;49.746;6.094;2022-08-19T06:56:18;23.63;;;21.15;;
12886;SDS011;6511;49.746;6.094;2022-08-19T06:58:46;23.80;;;21.40;;
12886;SDS011;6511;49.746;6.094;2022-08-19T07:01:13;24.25;;;21.77;;
12886;SDS011;6511;49.746;6.094;2022-08-19T07:03:39;24.80;;;22.40;;
12886;SDS011;6511;49.746;6.094;2022-08-19T07:08:32;25.23;;;22.73;;
12886;SDS011;6511;49.746;6.094;2022-08-19T07:10:59;25.40;;;22.80;;
12886;SDS011;6511;49.746;6.094;2022-08-19T07:13:25;28.15;;;25.35;;
12886;SDS011;6511;49.746;6.094;2022-08-19T07:15:50;29.08;;;26.08;;
12886;SDS011;6511;49.746;6.094;2022-08-19T07:18:19;30.65;;;27.45;;
12886;SDS011;6511;49.746;6.094;2022-08-19T07:20:46;28.63;;;25.73;;
12886;SDS011;6511;49.746;6.094;2022-08-19T07:23:12;28.08;;;25.13;;
12886;SDS011;6511;49.746;6.094;2022-08-19T07:25:38;28.77;;;26.00;;
12886;SDS011;6511;49.746;6.094;2022-08-19T07:28:04;27.67;;;24.95;;
12886;SDS011;6511;49.746;6.094;2022-08-19T07:30:32;27.45;;;24.75;;
12886;SDS011;6511;49.746;6.094;2022-08-19T07:33:00;29.23;;;26.38;;
12886;SDS011;6511;49.746;6.094;2022-08-19T07:35:26;29.20;;;26.10;;
12886;SDS011;6511;49.746;6.094;2022-08-19T07:37:53;29.42;;;26.48;;
12886;SDS011;6511;49.746;6.094;2022-08-19T07:40:19;29.27;;;26.38;;
12886;SDS011;6511;49.746;6.094;2022-08-19T07:42:44;28.67;;;25.83;;
12886;SDS011;6511;49.746;6.094;2022-08-19T07:45:10;28.40;;;25.60;;
12886;SDS011;6511;49.746;6.094;2022-08-19T07:47:36;27.50;;;24.75;;
12886;SDS011;6511;49.746;6.094;2022-08-19T07:50:03;28.03;;;25.13;;
12886;SDS011;6511;49.746;6.094;2022-08-19T07:52:31;27.70;;;24.90;;
12886;SDS011;6511;49.746;6.094;2022-08-19T07:54:56;28.42;;;25.63;;
12886;SDS011;6511;49.746;6.094;2022-08-19T07:57:22;29.02;;;26.15;;
12886;SDS011;6511;49.746;6.094;2022-08-19T07:59:48;27.23;;;24.58;;
12886;SDS011;6511;49.746;6.094;2022-08-19T08:02:14;27.90;;;25.15;;
12886;SDS011;6511;49.746;6.094;2022-08-19T08:04:39;28.23;;;25.27;;
12886;SDS011;6511;49.746;6.094;2022-08-19T08:07:23;27.37;;;24.63;;
12886;SDS011;6511;49.746;6.094;2022-08-19T08:10:08;28.13;;;25.25;;
12886;SDS011;6511;49.746;6.094;2022-08-19T08:12:35;27.60;;;24.83;;
12886;SDS011;6511;49.746;6.094;2022-08-19T08:15:07;27.70;;;24.90;;
12886;SDS011;6511;49.746;6.094;2022-08-19T08:17:36;27.42;;;24.73;;
12886;SDS011;6511;49.746;6.094;2022-08-19T08:20:04;26.90;;;24.23;;
12886;SDS011;6511;49.746;6.094;2022-08-19T08:22:31;26.02;;;23.55;;
12886;SDS011;6511;49.746;6.094;2022-08-19T08:25:17;25.48;;;22.80;;
12886;SDS011;6511;49.746;6.094;2022-08-19T08:27:45;28.23;;;25.35;;
12886;SDS011;6511;49.746;6.094;2022-08-19T08:30:14;27.25;;;24.55;;
12886;SDS011;6511;49.746;6.094;2022-08-19T08:32:42;26.13;;;23.52;;
12886;SDS011;6511;49.746;6.094;2022-08-19T08:35:09;25.45;;;22.75;;
12886;SDS011;6511;49.746;6.094;2022-08-19T08:37:39;24.58;;;22.13;;
12886;SDS011;6511;49.746;6.094;2022-08-19T08:40:06;25.17;;;22.67;;
12886;SDS011;6511;49.746;6.094;2022-08-19T08:42:40;24.85;;;22.38;;
12886;SDS011;6511;49.746;6.094;2022-08-19T08:45:14;25.80;;;23.27;;
12886;SDS011;6511;49.746;6.094;2022-08-19T08:47:44;25.40;;;22.90;;
12886;SDS011;6511;49.746;6.094;2022-08-19T08:50:18;26.45;;;23.65;;
12886;SDS011;6511;49.746;6.094;2022-08-19T08:52:48;26.77;;;24.08;;
12886;SDS011;6511;49.746;6.094;2022-08-19T08:55:23;25.92;;;23.33;;
12886;SDS011;6511;49.746;6.094;2022-08-19T08:57:53;24.35;;;21.75;;
12886;SDS011;6511;49.746;6.094;2022-08-19T09:00:31;25.38;;;22.77;;
12886;SDS011;6511;49.746;6.094;2022-08-19T09:02:59;26.33;;;23.73;;
12886;SDS011;6511;49.746;6.094;2022-08-19T09:05:30;24.75;;;22.35;;
12886;SDS011;6511;49.746;6.094;2022-08-19T09:08:07;23.95;;;21.52;;
12886;SDS011;6511;49.746;6.094;2022-08-19T09:10:39;24.27;;;21.75;;
12886;SDS011;6511;49.746;6.094;2022-08-19T09:16:06;22.13;;;19.92;;
12886;SDS011;6511;49.746;6.094;2022-08-19T09:18:42;22.10;;;19.77;;
12886;SDS011;6511;49.746;6.094;2022-08-19T09:21:16;22.17;;;20.07;;
12886;SDS011;6511;49.746;6.094;2022-08-19T09:23:42;23.00;;;20.70;;
12886;SDS011;6511;49.746;6.094;2022-08-19T09:26:18;23.33;;;21.02;;
12886;SDS011;6511;49.746;6.094;2022-08-19T09:28:46;21.00;;;18.77;;
12886;SDS011;6511;49.746;6.094;2022-08-19T09:31:17;22.50;;;20.40;;
12886;SDS011;6511;49.746;6.094;2022-08-19T09:33:44;22.20;;;20.00;;
12886;SDS011;6511;49.746;6.094;2022-08-19T09:36:12;20.97;;;18.97;;
12886;SDS011;6511;49.746;6.094;2022-08-19T09:38:39;21.77;;;19.60;;
12886;SDS011;6511;49.746;6.094;2022-08-19T09:41:09;20.58;;;18.67;;
12886;SDS011;6511;49.746;6.094;2022-08-19T09:43:41;21.20;;;18.73;;
12886;SDS011;6511;49.746;6.094;2022-08-19T09:46:09;22.35;;;20.13;;
12886;SDS011;6511;49.746;6.094;2022-08-19T09:48:35;21.47;;;19.37;;
12886;SDS011;6511;49.746;6.094;2022-08-19T09:51:03;22.85;;;20.55;;
12886;SDS011;6511;49.746;6.094;2022-08-19T09:53:29;21.27;;;19.27;;
12886;SDS011;6511;49.746;6.094;2022-08-19T09:55:55;21.42;;;19.33;;
12886;SDS011;6511;49.746;6.094;2022-08-19T09:58:21;21.58;;;19.45;;
12886;SDS011;6511;49.746;6.094;2022-08-19T10:00:51;20.63;;;18.50;;
12886;SDS011;6511;49.746;6.094;2022-08-19T10:03:18;19.85;;;17.80;;
12886;SDS011;6511;49.746;6.094;2022-08-19T10:05:44;25.20;;;20.52;;
12886;SDS011;6511;49.746;6.094;2022-08-19T10:08:26;23.42;;;20.98;;
12886;SDS011;6511;49.746;6.094;2022-08-19T10:10:55;22.85;;;20.45;;
12886;SDS011;6511;49.746;6.094;2022-08-19T10:13:22;21.48;;;19.48;;
12886;SDS011;6511;49.746;6.094;2022-08-19T10:15:55;23.55;;;21.17;;
12886;SDS011;6511;49.746;6.094;2022-08-19T10:18:26;21.77;;;19.67;;
12886;SDS011;6511;49.746;6.094;2022-08-19T10:21:01;20.58;;;18.45;;
12886;SDS011;6511;49.746;6.094;2022-08-19T10:23:38;21.15;;;19.00;;
12886;SDS011;6511;49.746;6.094;2022-08-19T10:26:11;21.77;;;19.55;;
12886;SDS011;6511;49.746;6.094;2022-08-19T10:28:39;21.97;;;19.57;;
12886;SDS011;6511;49.746;6.094;2022-08-19T10:31:13;22.88;;;18.98;;
12886;SDS011;6511;49.746;6.094;2022-08-19T10:33:42;22.92;;;19.08;;
12886;SDS011;6511;49.746;6.094;2022-08-19T10:36:12;20.73;;;18.53;;
12886;SDS011;6511;49.746;6.094;2022-08-19T10:38:40;20.93;;;18.67;;
12886;SDS011;6511;49.746;6.094;2022-08-19T10:43:39;19.23;;;16.65;;
12886;SDS011;6511;49.746;6.094;2022-08-19T10:46:09;18.93;;;16.97;;
12886;SDS011;6511;49.746;6.094;2022-08-19T10:48:39;19.58;;;17.55;;
12886;SDS011;6511;49.746;6.094;2022-08-19T10:51:06;19.92;;;17.92;;
12886;SDS011;6511;49.746;6.094;2022-08-19T10:53:51;22.38;;;19.50;;
12886;SDS011;6511;49.746;6.094;2022-08-19T10:56:17;21.60;;;19.00;;
12886;SDS011;6511;49.746;6.094;2022-08-19T10:59:02;19.55;;;17.60;;
12886;SDS011;6511;49.746;6.094;2022-08-19T11:01:29;17.53;;;15.73;;
12886;SDS011;6511;49.746;6.094;2022-08-19T11:03:59;20.63;;;17.60;;
12886;SDS011;6511;49.746;6.094;2022-08-19T11:06:26;20.33;;;17.80;;
12886;SDS011;6511;49.746;6.094;2022-08-19T11:08:55;16.83;;;14.95;;
12886;SDS011;6511;49.746;6.094;2022-08-19T11:11:21;19.13;;;16.73;;
12886;SDS011;6511;49.746;6.094;2022-08-19T11:13:47;19.40;;;17.40;;
12886;SDS011;6511;49.746;6.094;2022-08-19T11:16:25;18.67;;;16.77;;
12886;SDS011;6511;49.746;6.094;2022-08-19T11:18:53;18.40;;;16.60;;
12886;SDS011;6511;49.746;6.094;2022-08-19T11:21:33;14.35;;;12.55;;
12886;SDS011;6511;49.746;6.094;2022-08-19T11:24:02;10.63;;;8.70;;
12886;SDS011;6511;49.746;6.094;2022-08-19T11:26:31;8.00;;;6.88;;
12886;SDS011;6511;49.746;6.094;2022-08-19T11:29:00;9.98;;;8.98;;
12886;SDS011;6511;49.746;6.094;2022-08-19T11:31:27;9.48;;;8.52;;
12886;SDS011;6511;49.746;6.094;2022-08-19T11:33:58;10.05;;;8.98;;
12886;SDS011;6511;49.746;6.094;2022-08-19T11:36:26;11.65;;;10.25;;
12886;SDS011;6511;49.746;6.094;2022-08-19T11:38:53;11.07;;;9.87;;
12886;SDS011;6511;49.746;6.094;2022-08-19T11:41:19;10.65;;;9.57;;
12886;SDS011;6511;49.746;6.094;2022-08-19T11:43:48;11.20;;;10.18;;
12886;SDS011;6511;49.746;6.094;2022-08-19T11:46:15;10.60;;;9.60;;
12886;SDS011;6511;49.746;6.094;2022-08-19T11:48:41;10.63;;;9.63;;
12886;SDS011;6511;49.746;6.094;2022-08-19T11:51:08;11.20;;;9.98;;
12886;SDS011;6511;49.746;6.094;2022-08-19T11:53:39;10.60;;;9.70;;
12886;SDS011;6511;49.746;6.094;2022-08-19T11:56:05;11.77;;;10.57;;
12886;SDS011;6511;49.746;6.094;2022-08-19T11:58:33;11.10;;;9.95;;
12886;SDS011;6511;49.746;6.094;2022-08-19T12:00:59;10.40;;;9.50;;
12886;SDS011;6511;49.746;6.094;2022-08-19T12:03:25;9.35;;;8.35;;
12886;SDS011;6511;49.746;6.094;2022-08-19T12:05:51;8.00;;;7.30;;
12886;SDS011;6511;49.746;6.094;2022-08-19T12:08:17;8.17;;;7.37;;
12886;SDS011;6511;49.746;6.094;2022-08-19T12:10:44;8.43;;;7.63;;
12886;SDS011;6511;49.746;6.094;2022-08-19T12:13:10;9.52;;;8.52;;
12886;SDS011;6511;49.746;6.094;2022-08-19T12:15:40;9.45;;;8.40;;
12886;SDS011;6511;49.746;6.094;2022-08-19T12:18:06;9.85;;;8.85;;
12886;SDS011;6511;49.746;6.094;2022-08-19T12:20:34;11.15;;;9.25;;
12886;SDS011;6511;49.746;6.094;2022-08-19T12:23:01;10.48;;;8.77;;
12886;SDS011;6511;49.746;6.094;2022-08-19T12:25:27;9.07;;;8.02;;
12886;SDS011;6511;49.746;6.094;2022-08-19T12:27:53;10.27;;;8.73;;
12886;SDS011;6511;49.746;6.094;2022-08-19T12:30:20;8.68;;;7.78;;
12886;SDS011;6511;49.746;6.094;2022-08-19T12:32:45;10.52;;;8.52;;
12886;SDS011;6511;49.746;6.094;2022-08-19T12:35:11;9.93;;;8.53;;
12886;SDS011;6511;49.746;6.094;2022-08-19T12:37:37;9.30;;;8.13;;
12886;SDS011;6511;49.746;6.094;2022-08-19T12:40:03;10.30;;;7.72;;
12886;SDS011;6511;49.746;6.094;2022-08-19T12:42:30;7.78;;;6.80;;
12886;SDS011;6511;49.746;6.094;2022-08-19T12:44:55;7.90;;;6.80;;
12886;SDS011;6511;49.746;6.094;2022-08-19T12:47:21;7.50;;;6.80;;
12886;SDS011;6511;49.746;6.094;2022-08-19T12:49:47;8.53;;;7.10;;
12886;SDS011;6511;49.746;6.094;2022-08-19T12:52:14;9.40;;;6.00;;
12886;SDS011;6511;49.746;6.094;2022-08-19T12:54:41;6.68;;;5.88;;
12886;SDS011;6511;49.746;6.094;2022-08-19T12:57:08;6.35;;;5.75;;
12886;SDS011;6511;49.746;6.094;2022-08-19T12:59:35;7.37;;;5.90;;
12886;SDS011;6511;49.746;6.094;2022-08-19T13:02:03;6.32;;;5.72;;
12886;SDS011;6511;49.746;6.094;2022-08-19T13:04:31;5.72;;;4.75;;
12886;SDS011;6511;49.746;6.094;2022-08-19T13:07:00;4.70;;;4.30;;
12886;SDS011;6511;49.746;6.094;2022-08-19T13:09:26;5.00;;;3.83;;
12886;SDS011;6511;49.746;6.094;2022-08-19T13:11:52;4.03;;;3.73;;
12886;SDS011;6511;49.746;6.094;2022-08-19T13:14:17;4.13;;;3.83;;
12886;SDS011;6511;49.746;6.094;2022-08-19T13:16:43;4.38;;;3.97;;
12886;SDS011;6511;49.746;6.094;2022-08-19T13:19:09;3.83;;;3.50;;
12886;SDS011;6511;49.746;6.094;2022-08-19T13:21:36;3.15;;;2.95;;
12886;SDS011;6511;49.746;6.094;2022-08-19T13:24:02;3.08;;;2.30;;
12886;SDS011;6511;49.746;6.094;2022-08-19T13:26:28;2.70;;;2.50;;
12886;SDS011;6511;49.746;6.094;2022-08-19T13:28:54;2.75;;;2.50;;
12886;SDS011;6511;49.746;6.094;2022-08-19T13:31:39;2.50;;;2.30;;
12886;SDS011;6511;49.746;6.094;2022-08-19T13:34:29;2.40;;;2.20;;
12886;SDS011;6511;49.746;6.094;2022-08-19T13:36:58;2.40;;;2.20;;
12886;SDS011;6511;49.746;6.094;2022-08-19T13:39:24;2.80;;;2.30;;
12886;SDS011;6511;49.746;6.094;2022-08-19T13:41:50;3.50;;;2.10;;
12886;SDS011;6511;49.746;6.094;2022-08-19T13:44:16;2.15;;;1.98;;
12886;SDS011;6511;49.746;6.094;2022-08-19T13:46:46;1.63;;;1.53;;
12886;SDS011;6511;49.746;6.094;2022-08-19T13:49:13;1.05;;;1.00;;
12886;SDS011;6511;49.746;6.094;2022-08-19T13:51:40;2.30;;;1.13;;
12886;SDS011;6511;49.746;6.094;2022-08-19T13:54:07;1.88;;;1.23;;
12886;SDS011;6511;49.746;6.094;2022-08-19T13:56:35;2.60;;;1.52;;
12886;SDS011;6511;49.746;6.094;2022-08-19T13:59:04;1.40;;;1.30;;
12886;SDS011;6511;49.746;6.094;2022-08-19T14:01:30;1.30;;;1.20;;
12886;SDS011;6511;49.746;6.094;2022-08-19T14:03:56;2.10;;;1.10;;
12886;SDS011;6511;49.746;6.094;2022-08-19T14:06:21;1.30;;;1.20;;
12886;SDS011;6511;49.746;6.094;2022-08-19T14:08:47;1.40;;;1.30;;
12886;SDS011;6511;49.746;6.094;2022-08-19T14:11:13;1.55;;;1.40;;
12886;SDS011;6511;49.746;6.094;2022-08-19T14:13:39;1.58;;;1.48;;
12886;SDS011;6511;49.746;6.094;2022-08-19T14:16:09;2.83;;;1.40;;
12886;SDS011;6511;49.746;6.094;2022-08-19T14:18:37;1.70;;;1.60;;
12886;SDS011;6511;49.746;6.094;2022-08-19T14:21:03;1.50;;;1.40;;
12886;SDS011;6511;49.746;6.094;2022-08-19T14:23:30;1.40;;;1.30;;
12886;SDS011;6511;49.746;6.094;2022-08-19T14:26:03;2.10;;;1.20;;
12886;SDS011;6511;49.746;6.094;2022-08-19T14:28:30;1.10;;;1.05;;
12886;SDS011;6511;49.746;6.094;2022-08-19T14:30:56;1.65;;;1.08;;
12886;SDS011;6511;49.746;6.094;2022-08-19T14:33:21;1.45;;;1.20;;
12886;SDS011;6511;49.746;6.094;2022-08-19T14:35:47;1.70;;;1.10;;
12886;SDS011;6511;49.746;6.094;2022-08-19T14:38:17;1.20;;;1.10;;
12886;SDS011;6511;49.746;6.094;2022-08-19T14:40:43;2.10;;;1.50;;
12886;SDS011;6511;49.746;6.094;2022-08-19T14:43:10;1.90;;;1.80;;
12886;SDS011;6511;49.746;6.094;2022-08-19T14:45:37;1.70;;;1.60;;
12886;SDS011;6511;49.746;6.094;2022-08-19T14:48:04;2.47;;;1.80;;
12886;SDS011;6511;49.746;6.094;2022-08-19T14:50:30;1.80;;;1.63;;
12886;SDS011;6511;49.746;6.094;2022-08-19T14:52:58;1.63;;;1.48;;
12886;SDS011;6511;49.746;6.094;2022-08-19T14:55:34;1.40;;;1.30;;